sensor_id;sensor_type;location;lat;lon;timestamp;P1;durP1;ratioP1;P2;durP2;ratioP2
35120;SDS011;21297;52.008;4.576;2024-01-25T00:00:28;36.47;;;6.10;;
35120;SDS011;21297;52.008;4.576;2024-01-25T00:03:13;41.08;;;6.10;;
35120;SDS011;21297;52.008;4.576;2024-01-25T00:05:59;48.03;;;7.32;;
35120;SDS011;21297;52.008;4.576;2024-01-25T00:08:45;53.22;;;7.03;;
35120;SDS011;21297;52.008;4.576;2024-01-25T00:11:31;46.00;;;5.85;;
35120;SDS011;21297;52.008;4.576;2024-01-25T00:14:17;44.05;;;6.78;;
35120;SDS011;21297;52.008;4.576;2024-01-25T00:17:02;43.58;;;6.70;;
35120;SDS011;21297;52.008;4.576;2024-01-25T00:19:48;43.30;;;7.70;;
35120;SDS011;21297;52.008;4.576;2024-01-25T00:22:34;45.45;;;7.13;;
35120;SDS011;21297;52.008;4.576;2024-01-25T00:25:20;39.08;;;6.78;;
35120;SDS011;21297;52.008;4.576;2024-01-25T00:28:05;43.45;;;6.35;;
35120;SDS011;21297;52.008;4.576;2024-01-25T00:30:51;41.50;;;6.38;;
35120;SDS011;21297;52.008;4.576;2024-01-25T00:33:37;49.28;;;8.57;;
35120;SDS011;21297;52.008;4.576;2024-01-25T00:36:23;49.60;;;7.85;;
35120;SDS011;21297;52.008;4.576;2024-01-25T00:39:10;39.85;;;6.13;;
35120;SDS011;21297;52.008;4.576;2024-01-25T00:41:58;48.58;;;7.65;;
35120;SDS011;21297;52.008;4.576;2024-01-25T00:44:50;32.90;;;6.18;;
35120;SDS011;21297;52.008;4.576;2024-01-25T00:47:36;41.60;;;5.75;;
35120;SDS011;21297;52.008;4.576;2024-01-25T00:50:23;46.95;;;6.32;;
35120;SDS011;21297;52.008;4.576;2024-01-25T00:53:11;49.83;;;7.47;;
35120;SDS011;21297;52.008;4.576;2024-01-25T00:55:57;52.92;;;7.90;;
35120;SDS011;21297;52.008;4.576;2024-01-25T00:58:43;53.30;;;8.25;;
35120;SDS011;21297;52.008;4.576;2024-01-25T01:01:29;46.08;;;6.53;;
35120;SDS011;21297;52.008;4.576;2024-01-25T01:04:15;44.00;;;6.60;;
35120;SDS011;21297;52.008;4.576;2024-01-25T01:07:01;44.63;;;6.57;;
35120;SDS011;21297;52.008;4.576;2024-01-25T01:09:46;49.22;;;7.45;;
35120;SDS011;21297;52.008;4.576;2024-01-25T01:12:32;42.03;;;6.05;;
35120;SDS011;21297;52.008;4.576;2024-01-25T01:15:18;46.50;;;6.72;;
35120;SDS011;21297;52.008;4.576;2024-01-25T01:18:03;51.50;;;8.05;;
35120;SDS011;21297;52.008;4.576;2024-01-25T01:20:50;42.75;;;6.65;;
35120;SDS011;21297;52.008;4.576;2024-01-25T01:23:36;45.10;;;6.00;;
35120;SDS011;21297;52.008;4.576;2024-01-25T01:26:21;40.38;;;6.28;;
35120;SDS011;21297;52.008;4.576;2024-01-25T01:29:07;44.28;;;7.53;;
35120;SDS011;21297;52.008;4.576;2024-01-25T01:31:53;53.30;;;7.22;;
35120;SDS011;21297;52.008;4.576;2024-01-25T01:34:39;44.17;;;8.00;;
35120;SDS011;21297;52.008;4.576;2024-01-25T01:37:24;55.05;;;7.25;;
35120;SDS011;21297;52.008;4.576;2024-01-25T01:40:10;47.33;;;6.85;;
35120;SDS011;21297;52.008;4.576;2024-01-25T01:42:59;44.47;;;7.35;;
35120;SDS011;21297;52.008;4.576;2024-01-25T01:45:46;46.42;;;8.32;;
35120;SDS011;21297;52.008;4.576;2024-01-25T01:48:32;52.70;;;7.97;;
35120;SDS011;21297;52.008;4.576;2024-01-25T01:51:17;53.58;;;7.20;;
35120;SDS011;21297;52.008;4.576;2024-01-25T01:54:05;44.60;;;6.20;;
35120;SDS011;21297;52.008;4.576;2024-01-25T01:56:52;58.03;;;8.43;;
35120;SDS011;21297;52.008;4.576;2024-01-25T01:59:39;42.67;;;6.55;;
35120;SDS011;21297;52.008;4.576;2024-01-25T02:02:25;45.72;;;7.65;;
35120;SDS011;21297;52.008;4.576;2024-01-25T02:05:10;45.50;;;6.45;;
35120;SDS011;21297;52.008;4.576;2024-01-25T02:07:56;59.13;;;8.57;;
35120;SDS011;21297;52.008;4.576;2024-01-25T02:10:42;52.33;;;8.25;;
35120;SDS011;21297;52.008;4.576;2024-01-25T02:13:28;52.33;;;9.18;;
35120;SDS011;21297;52.008;4.576;2024-01-25T02:16:14;55.38;;;7.10;;
35120;SDS011;21297;52.008;4.576;2024-01-25T02:19:00;48.53;;;6.25;;
35120;SDS011;21297;52.008;4.576;2024-01-25T02:21:46;48.70;;;6.78;;
35120;SDS011;21297;52.008;4.576;2024-01-25T02:24:31;48.63;;;6.95;;
35120;SDS011;21297;52.008;4.576;2024-01-25T02:27:17;64.78;;;8.05;;
35120;SDS011;21297;52.008;4.576;2024-01-25T02:30:03;51.67;;;6.93;;
35120;SDS011;21297;52.008;4.576;2024-01-25T02:32:49;50.90;;;7.82;;
35120;SDS011;21297;52.008;4.576;2024-01-25T02:35:34;57.60;;;8.32;;
35120;SDS011;21297;52.008;4.576;2024-01-25T02:38:20;45.95;;;6.88;;
35120;SDS011;21297;52.008;4.576;2024-01-25T02:41:06;47.78;;;7.35;;
35120;SDS011;21297;52.008;4.576;2024-01-25T02:43:51;47.22;;;7.00;;
35120;SDS011;21297;52.008;4.576;2024-01-25T02:46:37;43.70;;;6.32;;
35120;SDS011;21297;52.008;4.576;2024-01-25T02:49:23;58.40;;;9.55;;
35120;SDS011;21297;52.008;4.576;2024-01-25T02:52:09;49.70;;;9.45;;
35120;SDS011;21297;52.008;4.576;2024-01-25T02:54:55;46.70;;;7.03;;
35120;SDS011;21297;52.008;4.576;2024-01-25T02:57:41;48.33;;;8.05;;
35120;SDS011;21297;52.008;4.576;2024-01-25T03:00:26;63.47;;;6.95;;
35120;SDS011;21297;52.008;4.576;2024-01-25T03:03:12;55.35;;;8.40;;
35120;SDS011;21297;52.008;4.576;2024-01-25T03:05:59;46.90;;;6.20;;
35120;SDS011;21297;52.008;4.576;2024-01-25T03:08:45;50.50;;;9.32;;
35120;SDS011;21297;52.008;4.576;2024-01-25T03:11:31;43.30;;;6.30;;
35120;SDS011;21297;52.008;4.576;2024-01-25T03:14:17;61.95;;;9.07;;
35120;SDS011;21297;52.008;4.576;2024-01-25T03:17:02;54.15;;;5.90;;
35120;SDS011;21297;52.008;4.576;2024-01-25T03:19:48;52.38;;;8.10;;
35120;SDS011;21297;52.008;4.576;2024-01-25T03:22:34;46.92;;;8.20;;
35120;SDS011;21297;52.008;4.576;2024-01-25T03:25:20;40.58;;;6.60;;
35120;SDS011;21297;52.008;4.576;2024-01-25T03:28:06;43.63;;;5.97;;
35120;SDS011;21297;52.008;4.576;2024-01-25T03:30:52;45.78;;;5.45;;
35120;SDS011;21297;52.008;4.576;2024-01-25T03:33:37;35.85;;;5.32;;
35120;SDS011;21297;52.008;4.576;2024-01-25T03:36:23;44.08;;;5.97;;
35120;SDS011;21297;52.008;4.576;2024-01-25T03:39:08;31.90;;;5.55;;
35120;SDS011;21297;52.008;4.576;2024-01-25T03:41:54;31.48;;;5.18;;
35120;SDS011;21297;52.008;4.576;2024-01-25T03:44:40;33.67;;;5.25;;
35120;SDS011;21297;52.008;4.576;2024-01-25T03:47:27;42.08;;;7.10;;
35120;SDS011;21297;52.008;4.576;2024-01-25T03:50:13;42.78;;;6.72;;
35120;SDS011;21297;52.008;4.576;2024-01-25T03:52:59;33.33;;;5.18;;
35120;SDS011;21297;52.008;4.576;2024-01-25T03:55:44;42.67;;;5.93;;
35120;SDS011;21297;52.008;4.576;2024-01-25T03:58:30;38.63;;;5.50;;
35120;SDS011;21297;52.008;4.576;2024-01-25T04:01:16;49.42;;;5.88;;
35120;SDS011;21297;52.008;4.576;2024-01-25T04:04:01;38.85;;;6.00;;
35120;SDS011;21297;52.008;4.576;2024-01-25T04:06:47;39.45;;;6.95;;
35120;SDS011;21297;52.008;4.576;2024-01-25T04:09:33;59.40;;;7.20;;
35120;SDS011;21297;52.008;4.576;2024-01-25T04:12:19;51.70;;;7.00;;
35120;SDS011;21297;52.008;4.576;2024-01-25T04:15:05;41.30;;;6.32;;
35120;SDS011;21297;52.008;4.576;2024-01-25T04:17:51;50.65;;;7.50;;
35120;SDS011;21297;52.008;4.576;2024-01-25T04:20:39;43.63;;;6.93;;
35120;SDS011;21297;52.008;4.576;2024-01-25T04:23:25;45.25;;;8.77;;
35120;SDS011;21297;52.008;4.576;2024-01-25T04:26:10;45.00;;;5.97;;
35120;SDS011;21297;52.008;4.576;2024-01-25T04:28:56;40.55;;;5.47;;
35120;SDS011;21297;52.008;4.576;2024-01-25T04:31:42;43.85;;;5.70;;
35120;SDS011;21297;52.008;4.576;2024-01-25T04:34:31;38.85;;;5.57;;
35120;SDS011;21297;52.008;4.576;2024-01-25T04:37:17;36.55;;;6.70;;
35120;SDS011;21297;52.008;4.576;2024-01-25T04:40:03;46.78;;;6.25;;
35120;SDS011;21297;52.008;4.576;2024-01-25T04:42:50;42.83;;;6.03;;
35120;SDS011;21297;52.008;4.576;2024-01-25T04:45:36;49.70;;;5.63;;
35120;SDS011;21297;52.008;4.576;2024-01-25T04:48:21;49.20;;;6.80;;
35120;SDS011;21297;52.008;4.576;2024-01-25T04:51:07;35.55;;;6.00;;
35120;SDS011;21297;52.008;4.576;2024-01-25T04:53:52;44.13;;;7.45;;
35120;SDS011;21297;52.008;4.576;2024-01-25T04:56:38;41.97;;;6.53;;
35120;SDS011;21297;52.008;4.576;2024-01-25T04:59:24;31.75;;;6.32;;
35120;SDS011;21297;52.008;4.576;2024-01-25T05:02:09;46.78;;;5.68;;
35120;SDS011;21297;52.008;4.576;2024-01-25T05:04:55;40.08;;;6.30;;
35120;SDS011;21297;52.008;4.576;2024-01-25T05:07:41;46.15;;;6.35;;
35120;SDS011;21297;52.008;4.576;2024-01-25T05:10:27;38.08;;;5.80;;
35120;SDS011;21297;52.008;4.576;2024-01-25T05:13:12;39.80;;;6.32;;
35120;SDS011;21297;52.008;4.576;2024-01-25T05:15:58;44.83;;;5.90;;
35120;SDS011;21297;52.008;4.576;2024-01-25T05:18:44;38.45;;;7.28;;
35120;SDS011;21297;52.008;4.576;2024-01-25T05:21:30;48.88;;;7.13;;
35120;SDS011;21297;52.008;4.576;2024-01-25T05:24:15;25.92;;;4.65;;
35120;SDS011;21297;52.008;4.576;2024-01-25T05:27:01;39.88;;;6.10;;
35120;SDS011;21297;52.008;4.576;2024-01-25T05:29:47;46.53;;;7.07;;
35120;SDS011;21297;52.008;4.576;2024-01-25T05:32:33;36.03;;;5.75;;
35120;SDS011;21297;52.008;4.576;2024-01-25T05:35:18;39.67;;;6.95;;
35120;SDS011;21297;52.008;4.576;2024-01-25T05:38:04;38.15;;;6.57;;
35120;SDS011;21297;52.008;4.576;2024-01-25T05:40:50;35.58;;;5.90;;
35120;SDS011;21297;52.008;4.576;2024-01-25T05:43:35;54.53;;;7.38;;
35120;SDS011;21297;52.008;4.576;2024-01-25T05:46:22;55.75;;;10.35;;
35120;SDS011;21297;52.008;4.576;2024-01-25T05:49:08;47.13;;;8.35;;
35120;SDS011;21297;52.008;4.576;2024-01-25T05:51:53;46.97;;;7.70;;
35120;SDS011;21297;52.008;4.576;2024-01-25T05:54:39;54.88;;;7.10;;
35120;SDS011;21297;52.008;4.576;2024-01-25T05:57:25;42.50;;;6.70;;
35120;SDS011;21297;52.008;4.576;2024-01-25T06:00:11;44.00;;;6.75;;
35120;SDS011;21297;52.008;4.576;2024-01-25T06:02:58;36.70;;;7.00;;
35120;SDS011;21297;52.008;4.576;2024-01-25T06:05:44;39.88;;;5.88;;
35120;SDS011;21297;52.008;4.576;2024-01-25T06:08:29;38.22;;;6.32;;
35120;SDS011;21297;52.008;4.576;2024-01-25T06:11:15;58.22;;;8.20;;
35120;SDS011;21297;52.008;4.576;2024-01-25T06:14:01;47.75;;;8.07;;
35120;SDS011;21297;52.008;4.576;2024-01-25T06:16:46;43.75;;;7.22;;
35120;SDS011;21297;52.008;4.576;2024-01-25T06:19:32;50.83;;;6.47;;
35120;SDS011;21297;52.008;4.576;2024-01-25T06:22:19;46.85;;;7.00;;
35120;SDS011;21297;52.008;4.576;2024-01-25T06:25:05;45.92;;;7.40;;
35120;SDS011;21297;52.008;4.576;2024-01-25T06:27:51;42.28;;;6.22;;
35120;SDS011;21297;52.008;4.576;2024-01-25T06:30:36;39.92;;;6.60;;
35120;SDS011;21297;52.008;4.576;2024-01-25T06:33:22;47.20;;;8.00;;
35120;SDS011;21297;52.008;4.576;2024-01-25T06:36:08;37.80;;;8.18;;
35120;SDS011;21297;52.008;4.576;2024-01-25T06:38:54;42.72;;;7.47;;
35120;SDS011;21297;52.008;4.576;2024-01-25T06:41:39;38.95;;;6.70;;
35120;SDS011;21297;52.008;4.576;2024-01-25T06:44:25;51.42;;;9.55;;
35120;SDS011;21297;52.008;4.576;2024-01-25T06:47:11;40.95;;;6.75;;
35120;SDS011;21297;52.008;4.576;2024-01-25T06:49:56;47.63;;;7.00;;
35120;SDS011;21297;52.008;4.576;2024-01-25T06:52:42;54.45;;;8.20;;
35120;SDS011;21297;52.008;4.576;2024-01-25T06:55:28;58.67;;;9.80;;
35120;SDS011;21297;52.008;4.576;2024-01-25T06:58:13;67.80;;;7.97;;
35120;SDS011;21297;52.008;4.576;2024-01-25T07:00:59;36.28;;;7.63;;
35120;SDS011;21297;52.008;4.576;2024-01-25T07:03:45;45.75;;;6.82;;
35120;SDS011;21297;52.008;4.576;2024-01-25T07:06:30;42.97;;;7.00;;
35120;SDS011;21297;52.008;4.576;2024-01-25T07:09:16;58.78;;;8.00;;
35120;SDS011;21297;52.008;4.576;2024-01-25T07:12:02;55.38;;;7.50;;
35120;SDS011;21297;52.008;4.576;2024-01-25T07:14:48;55.90;;;8.27;;
35120;SDS011;21297;52.008;4.576;2024-01-25T07:17:33;56.30;;;8.23;;
35120;SDS011;21297;52.008;4.576;2024-01-25T07:20:19;44.28;;;7.50;;
35120;SDS011;21297;52.008;4.576;2024-01-25T07:23:05;48.72;;;7.90;;
35120;SDS011;21297;52.008;4.576;2024-01-25T07:25:51;47.00;;;7.40;;
35120;SDS011;21297;52.008;4.576;2024-01-25T07:28:36;40.63;;;7.05;;
35120;SDS011;21297;52.008;4.576;2024-01-25T07:31:22;53.85;;;8.05;;
35120;SDS011;21297;52.008;4.576;2024-01-25T07:34:08;65.75;;;10.70;;
35120;SDS011;21297;52.008;4.576;2024-01-25T07:36:53;56.25;;;9.15;;
35120;SDS011;21297;52.008;4.576;2024-01-25T07:39:39;63.13;;;9.48;;
35120;SDS011;21297;52.008;4.576;2024-01-25T07:42:25;53.25;;;7.90;;
35120;SDS011;21297;52.008;4.576;2024-01-25T07:45:11;36.90;;;6.88;;
35120;SDS011;21297;52.008;4.576;2024-01-25T07:47:58;53.20;;;7.82;;
35120;SDS011;21297;52.008;4.576;2024-01-25T07:50:44;39.35;;;7.40;;
35120;SDS011;21297;52.008;4.576;2024-01-25T07:53:30;43.83;;;7.35;;
35120;SDS011;21297;52.008;4.576;2024-01-25T07:56:16;45.28;;;9.05;;
35120;SDS011;21297;52.008;4.576;2024-01-25T07:59:01;49.78;;;7.40;;
35120;SDS011;21297;52.008;4.576;2024-01-25T08:01:47;52.10;;;7.85;;
35120;SDS011;21297;52.008;4.576;2024-01-25T08:04:33;33.58;;;6.15;;
35120;SDS011;21297;52.008;4.576;2024-01-25T08:07:19;34.75;;;6.32;;
35120;SDS011;21297;52.008;4.576;2024-01-25T08:10:05;62.45;;;9.85;;
35120;SDS011;21297;52.008;4.576;2024-01-25T08:12:51;47.67;;;7.07;;
35120;SDS011;21297;52.008;4.576;2024-01-25T08:15:37;42.58;;;6.65;;
35120;SDS011;21297;52.008;4.576;2024-01-25T08:18:23;37.75;;;7.60;;
35120;SDS011;21297;52.008;4.576;2024-01-25T08:21:10;56.85;;;9.27;;
35120;SDS011;21297;52.008;4.576;2024-01-25T08:23:56;39.10;;;6.63;;
35120;SDS011;21297;52.008;4.576;2024-01-25T08:26:42;44.72;;;8.40;;
35120;SDS011;21297;52.008;4.576;2024-01-25T08:29:27;49.05;;;7.10;;
35120;SDS011;21297;52.008;4.576;2024-01-25T08:32:13;41.83;;;7.35;;
35120;SDS011;21297;52.008;4.576;2024-01-25T08:34:59;56.03;;;8.85;;
35120;SDS011;21297;52.008;4.576;2024-01-25T08:37:44;50.88;;;7.72;;
35120;SDS011;21297;52.008;4.576;2024-01-25T08:40:30;45.70;;;7.43;;
35120;SDS011;21297;52.008;4.576;2024-01-25T08:43:16;51.47;;;8.23;;
35120;SDS011;21297;52.008;4.576;2024-01-25T08:46:01;44.88;;;7.68;;
35120;SDS011;21297;52.008;4.576;2024-01-25T08:48:47;50.97;;;8.68;;
35120;SDS011;21297;52.008;4.576;2024-01-25T08:51:33;41.03;;;7.05;;
35120;SDS011;21297;52.008;4.576;2024-01-25T08:54:18;50.38;;;8.02;;
35120;SDS011;21297;52.008;4.576;2024-01-25T08:57:04;44.92;;;7.97;;
35120;SDS011;21297;52.008;4.576;2024-01-25T08:59:50;51.03;;;6.72;;
35120;SDS011;21297;52.008;4.576;2024-01-25T09:02:37;59.63;;;9.32;;
35120;SDS011;21297;52.008;4.576;2024-01-25T09:05:23;59.97;;;11.75;;
35120;SDS011;21297;52.008;4.576;2024-01-25T09:08:13;51.50;;;8.13;;
35120;SDS011;21297;52.008;4.576;2024-01-25T09:10:59;49.22;;;8.68;;
35120;SDS011;21297;52.008;4.576;2024-01-25T09:13:45;45.75;;;8.20;;
35120;SDS011;21297;52.008;4.576;2024-01-25T09:16:32;46.60;;;8.20;;
35120;SDS011;21297;52.008;4.576;2024-01-25T09:19:18;46.17;;;10.52;;
35120;SDS011;21297;52.008;4.576;2024-01-25T09:22:04;50.30;;;9.25;;
35120;SDS011;21297;52.008;4.576;2024-01-25T09:24:50;41.10;;;7.18;;
35120;SDS011;21297;52.008;4.576;2024-01-25T09:27:35;43.58;;;7.55;;
35120;SDS011;21297;52.008;4.576;2024-01-25T09:30:22;42.80;;;8.32;;
35120;SDS011;21297;52.008;4.576;2024-01-25T09:33:08;40.75;;;8.48;;
35120;SDS011;21297;52.008;4.576;2024-01-25T09:35:53;45.03;;;8.40;;
35120;SDS011;21297;52.008;4.576;2024-01-25T09:38:39;38.10;;;7.75;;
35120;SDS011;21297;52.008;4.576;2024-01-25T09:41:25;43.38;;;8.27;;
35120;SDS011;21297;52.008;4.576;2024-01-25T09:44:12;50.53;;;8.88;;
35120;SDS011;21297;52.008;4.576;2024-01-25T09:46:58;40.25;;;7.03;;
35120;SDS011;21297;52.008;4.576;2024-01-25T09:49:44;35.65;;;7.53;;
35120;SDS011;21297;52.008;4.576;2024-01-25T09:52:30;47.70;;;8.80;;
35120;SDS011;21297;52.008;4.576;2024-01-25T09:55:17;47.95;;;8.80;;
35120;SDS011;21297;52.008;4.576;2024-01-25T09:58:06;42.63;;;9.02;;
35120;SDS011;21297;52.008;4.576;2024-01-25T10:00:53;46.88;;;8.02;;
35120;SDS011;21297;52.008;4.576;2024-01-25T10:03:41;43.05;;;9.40;;
35120;SDS011;21297;52.008;4.576;2024-01-25T10:06:28;47.05;;;9.13;;
35120;SDS011;21297;52.008;4.576;2024-01-25T10:09:13;43.78;;;9.73;;
35120;SDS011;21297;52.008;4.576;2024-01-25T10:11:59;56.40;;;9.55;;
35120;SDS011;21297;52.008;4.576;2024-01-25T10:14:45;49.72;;;9.93;;
35120;SDS011;21297;52.008;4.576;2024-01-25T10:17:31;64.40;;;9.50;;
35120;SDS011;21297;52.008;4.576;2024-01-25T10:20:17;65.25;;;11.45;;
35120;SDS011;21297;52.008;4.576;2024-01-25T10:23:02;58.38;;;9.80;;
35120;SDS011;21297;52.008;4.576;2024-01-25T10:25:48;52.38;;;8.60;;
35120;SDS011;21297;52.008;4.576;2024-01-25T10:28:34;61.88;;;10.48;;
35120;SDS011;21297;52.008;4.576;2024-01-25T10:31:23;39.30;;;10.57;;
35120;SDS011;21297;52.008;4.576;2024-01-25T10:34:11;47.22;;;7.75;;
35120;SDS011;21297;52.008;4.576;2024-01-25T10:36:58;44.78;;;9.63;;
35120;SDS011;21297;52.008;4.576;2024-01-25T10:39:44;47.90;;;8.70;;
35120;SDS011;21297;52.008;4.576;2024-01-25T10:42:30;43.97;;;8.60;;
35120;SDS011;21297;52.008;4.576;2024-01-25T10:45:16;42.10;;;9.27;;
35120;SDS011;21297;52.008;4.576;2024-01-25T10:48:01;43.40;;;9.98;;
35120;SDS011;21297;52.008;4.576;2024-01-25T10:50:48;46.40;;;9.20;;
35120;SDS011;21297;52.008;4.576;2024-01-25T10:53:34;53.92;;;10.00;;
35120;SDS011;21297;52.008;4.576;2024-01-25T10:56:20;59.85;;;9.70;;
35120;SDS011;21297;52.008;4.576;2024-01-25T10:59:06;50.92;;;9.48;;
35120;SDS011;21297;52.008;4.576;2024-01-25T11:01:54;51.10;;;9.70;;
35120;SDS011;21297;52.008;4.576;2024-01-25T11:04:40;45.67;;;9.18;;
35120;SDS011;21297;52.008;4.576;2024-01-25T11:07:25;50.08;;;10.98;;
35120;SDS011;21297;52.008;4.576;2024-01-25T11:10:12;51.28;;;9.75;;
35120;SDS011;21297;52.008;4.576;2024-01-25T11:13:00;46.00;;;10.27;;
35120;SDS011;21297;52.008;4.576;2024-01-25T11:15:46;46.90;;;10.63;;
35120;SDS011;21297;52.008;4.576;2024-01-25T11:18:32;54.92;;;9.63;;
35120;SDS011;21297;52.008;4.576;2024-01-25T11:24:25;48.38;;;10.82;;
35120;SDS011;21297;52.008;4.576;2024-01-25T11:27:11;48.33;;;10.05;;
35120;SDS011;21297;52.008;4.576;2024-01-25T11:29:57;56.85;;;10.05;;
35120;SDS011;21297;52.008;4.576;2024-01-25T11:32:43;53.72;;;12.25;;
35120;SDS011;21297;52.008;4.576;2024-01-25T11:35:29;58.72;;;10.07;;
35120;SDS011;21297;52.008;4.576;2024-01-25T11:38:15;58.85;;;11.35;;
35120;SDS011;21297;52.008;4.576;2024-01-25T11:41:00;51.70;;;10.82;;
35120;SDS011;21297;52.008;4.576;2024-01-25T11:43:50;46.00;;;8.98;;
35120;SDS011;21297;52.008;4.576;2024-01-25T11:46:36;48.15;;;11.02;;
35120;SDS011;21297;52.008;4.576;2024-01-25T11:49:23;66.50;;;11.07;;
35120;SDS011;21297;52.008;4.576;2024-01-25T11:52:10;49.88;;;11.48;;
35120;SDS011;21297;52.008;4.576;2024-01-25T11:54:56;66.43;;;12.48;;
35120;SDS011;21297;52.008;4.576;2024-01-25T11:57:41;52.55;;;9.93;;
35120;SDS011;21297;52.008;4.576;2024-01-25T12:00:27;52.92;;;10.48;;
35120;SDS011;21297;52.008;4.576;2024-01-25T12:03:13;53.00;;;11.70;;
35120;SDS011;21297;52.008;4.576;2024-01-25T12:06:00;60.95;;;10.73;;
35120;SDS011;21297;52.008;4.576;2024-01-25T12:08:45;46.70;;;9.88;;
35120;SDS011;21297;52.008;4.576;2024-01-25T12:11:33;45.95;;;10.10;;
35120;SDS011;21297;52.008;4.576;2024-01-25T12:14:20;48.67;;;9.85;;
35120;SDS011;21297;52.008;4.576;2024-01-25T12:17:06;58.42;;;12.98;;
35120;SDS011;21297;52.008;4.576;2024-01-25T12:19:54;42.53;;;11.18;;
35120;SDS011;21297;52.008;4.576;2024-01-25T12:22:40;45.30;;;10.13;;
35120;SDS011;21297;52.008;4.576;2024-01-25T12:25:26;52.45;;;12.68;;
35120;SDS011;21297;52.008;4.576;2024-01-25T12:28:12;45.90;;;9.35;;
35120;SDS011;21297;52.008;4.576;2024-01-25T12:30:59;58.55;;;13.25;;
35120;SDS011;21297;52.008;4.576;2024-01-25T12:33:45;51.78;;;9.40;;
35120;SDS011;21297;52.008;4.576;2024-01-25T12:36:31;44.88;;;9.25;;
35120;SDS011;21297;52.008;4.576;2024-01-25T12:39:18;49.00;;;10.52;;
35120;SDS011;21297;52.008;4.576;2024-01-25T12:42:04;47.17;;;9.20;;
35120;SDS011;21297;52.008;4.576;2024-01-25T12:44:51;48.13;;;9.23;;
35120;SDS011;21297;52.008;4.576;2024-01-25T12:47:38;50.28;;;10.05;;
35120;SDS011;21297;52.008;4.576;2024-01-25T12:50:23;66.15;;;8.93;;
35120;SDS011;21297;52.008;4.576;2024-01-25T12:53:12;51.67;;;8.95;;
35120;SDS011;21297;52.008;4.576;2024-01-25T12:55:59;50.75;;;8.93;;
35120;SDS011;21297;52.008;4.576;2024-01-25T12:58:45;50.33;;;8.80;;
35120;SDS011;21297;52.008;4.576;2024-01-25T13:01:30;52.78;;;8.75;;
35120;SDS011;21297;52.008;4.576;2024-01-25T13:04:16;52.85;;;10.68;;
35120;SDS011;21297;52.008;4.576;2024-01-25T13:07:02;51.75;;;10.65;;
35120;SDS011;21297;52.008;4.576;2024-01-25T13:09:48;48.80;;;9.50;;
35120;SDS011;21297;52.008;4.576;2024-01-25T13:12:33;56.08;;;8.20;;
35120;SDS011;21297;52.008;4.576;2024-01-25T13:15:19;64.82;;;11.18;;
35120;SDS011;21297;52.008;4.576;2024-01-25T13:18:05;51.42;;;9.50;;
35120;SDS011;21297;52.008;4.576;2024-01-25T13:20:51;49.67;;;9.07;;
35120;SDS011;21297;52.008;4.576;2024-01-25T13:23:37;46.30;;;9.80;;
35120;SDS011;21297;52.008;4.576;2024-01-25T13:26:22;49.45;;;10.15;;
35120;SDS011;21297;52.008;4.576;2024-01-25T13:29:08;54.42;;;9.77;;
35120;SDS011;21297;52.008;4.576;2024-01-25T13:31:58;54.10;;;10.00;;
35120;SDS011;21297;52.008;4.576;2024-01-25T13:34:43;44.72;;;8.60;;
35120;SDS011;21297;52.008;4.576;2024-01-25T13:37:29;46.45;;;8.80;;
35120;SDS011;21297;52.008;4.576;2024-01-25T13:40:14;49.72;;;8.57;;
35120;SDS011;21297;52.008;4.576;2024-01-25T13:43:00;36.33;;;8.48;;
35120;SDS011;21297;52.008;4.576;2024-01-25T13:45:46;51.80;;;11.27;;
35120;SDS011;21297;52.008;4.576;2024-01-25T13:48:31;50.50;;;10.07;;
35120;SDS011;21297;52.008;4.576;2024-01-25T13:51:17;52.95;;;10.88;;
35120;SDS011;21297;52.008;4.576;2024-01-25T13:54:03;53.60;;;10.85;;
35120;SDS011;21297;52.008;4.576;2024-01-25T13:56:48;48.35;;;11.45;;
35120;SDS011;21297;52.008;4.576;2024-01-25T13:59:34;56.97;;;10.93;;
35120;SDS011;21297;52.008;4.576;2024-01-25T14:02:20;52.15;;;12.63;;
35120;SDS011;21297;52.008;4.576;2024-01-25T14:05:05;51.88;;;14.27;;
35120;SDS011;21297;52.008;4.576;2024-01-25T14:07:52;51.20;;;13.60;;
35120;SDS011;21297;52.008;4.576;2024-01-25T14:10:37;54.05;;;14.98;;
35120;SDS011;21297;52.008;4.576;2024-01-25T14:13:23;49.53;;;13.93;;
35120;SDS011;21297;52.008;4.576;2024-01-25T14:16:09;46.33;;;15.25;;
35120;SDS011;21297;52.008;4.576;2024-01-25T14:18:55;47.92;;;16.25;;
35120;SDS011;21297;52.008;4.576;2024-01-25T14:21:41;58.72;;;17.25;;
35120;SDS011;21297;52.008;4.576;2024-01-25T14:24:26;57.20;;;16.63;;
35120;SDS011;21297;52.008;4.576;2024-01-25T14:27:12;46.97;;;17.75;;
35120;SDS011;21297;52.008;4.576;2024-01-25T14:29:58;56.63;;;21.20;;
35120;SDS011;21297;52.008;4.576;2024-01-25T14:32:45;54.22;;;19.33;;
35120;SDS011;21297;52.008;4.576;2024-01-25T14:35:32;59.53;;;21.48;;
35120;SDS011;21297;52.008;4.576;2024-01-25T14:38:17;60.20;;;20.80;;
35120;SDS011;21297;52.008;4.576;2024-01-25T14:41:03;63.70;;;23.65;;
35120;SDS011;21297;52.008;4.576;2024-01-25T14:43:52;60.20;;;23.38;;
35120;SDS011;21297;52.008;4.576;2024-01-25T14:46:38;64.40;;;25.70;;
35120;SDS011;21297;52.008;4.576;2024-01-25T14:49:24;63.67;;;23.10;;
35120;SDS011;21297;52.008;4.576;2024-01-25T14:52:10;64.00;;;24.65;;
35120;SDS011;21297;52.008;4.576;2024-01-25T14:54:55;62.00;;;24.52;;
35120;SDS011;21297;52.008;4.576;2024-01-25T14:57:41;63.85;;;23.85;;
35120;SDS011;21297;52.008;4.576;2024-01-25T15:00:26;61.83;;;24.83;;
35120;SDS011;21297;52.008;4.576;2024-01-25T15:03:12;55.45;;;24.23;;
35120;SDS011;21297;52.008;4.576;2024-01-25T15:05:58;69.78;;;26.15;;
35120;SDS011;21297;52.008;4.576;2024-01-25T15:08:45;65.68;;;25.58;;
35120;SDS011;21297;52.008;4.576;2024-01-25T15:11:31;67.32;;;25.23;;
35120;SDS011;21297;52.008;4.576;2024-01-25T15:14:17;77.20;;;25.17;;
35120;SDS011;21297;52.008;4.576;2024-01-25T15:17:03;60.83;;;26.02;;
35120;SDS011;21297;52.008;4.576;2024-01-25T15:19:48;62.75;;;24.55;;
35120;SDS011;21297;52.008;4.576;2024-01-25T15:22:34;59.30;;;23.38;;
35120;SDS011;21297;52.008;4.576;2024-01-25T15:25:20;59.50;;;24.55;;
35120;SDS011;21297;52.008;4.576;2024-01-25T15:28:06;60.25;;;25.20;;
35120;SDS011;21297;52.008;4.576;2024-01-25T15:30:52;55.28;;;24.75;;
35120;SDS011;21297;52.008;4.576;2024-01-25T15:33:37;65.22;;;25.67;;
35120;SDS011;21297;52.008;4.576;2024-01-25T15:36:23;65.40;;;24.58;;
35120;SDS011;21297;52.008;4.576;2024-01-25T15:39:09;58.33;;;23.92;;
35120;SDS011;21297;52.008;4.576;2024-01-25T15:41:55;59.50;;;25.08;;
35120;SDS011;21297;52.008;4.576;2024-01-25T15:44:41;61.35;;;25.33;;
35120;SDS011;21297;52.008;4.576;2024-01-25T15:47:27;69.60;;;25.20;;
35120;SDS011;21297;52.008;4.576;2024-01-25T15:50:12;62.28;;;25.40;;
35120;SDS011;21297;52.008;4.576;2024-01-25T15:52:58;59.13;;;24.55;;
35120;SDS011;21297;52.008;4.576;2024-01-25T15:55:44;71.95;;;27.98;;
35120;SDS011;21297;52.008;4.576;2024-01-25T15:58:30;62.47;;;25.70;;
35120;SDS011;21297;52.008;4.576;2024-01-25T16:01:16;65.32;;;26.27;;
35120;SDS011;21297;52.008;4.576;2024-01-25T16:04:02;64.32;;;27.45;;
35120;SDS011;21297;52.008;4.576;2024-01-25T16:06:47;66.38;;;27.55;;
35120;SDS011;21297;52.008;4.576;2024-01-25T16:09:33;75.55;;;30.40;;
35120;SDS011;21297;52.008;4.576;2024-01-25T16:12:19;68.80;;;31.42;;
35120;SDS011;21297;52.008;4.576;2024-01-25T16:15:05;70.00;;;33.10;;
35120;SDS011;21297;52.008;4.576;2024-01-25T16:17:51;77.55;;;32.35;;
35120;SDS011;21297;52.008;4.576;2024-01-25T16:20:37;81.28;;;32.80;;
35120;SDS011;21297;52.008;4.576;2024-01-25T16:23:22;77.85;;;33.13;;